Time;durP1;ratioP1;P1;durP2;ratioP2;P2;SDS_P1;SDS_P2;PMS_P1;PMS_P2;Temp;Humidity;BMP_temperature;BMP_pressure;BME280_temperature;BME280_humidity;BME280_pressure;Samples;Min_cycle;Max_cycle;Signal;HPM_P1;HPM_P2
2023/03/15 00:00:19;;;;;;;12.00;4.70;;;4.50;99.90;;;;;;5137062;27;20498;-58
2023/03/15 00:02:46;;;;;;;9.70;3.87;;;4.50;99.90;;;;;;5136843;27;20482;-57
2023/03/15 00:05:13;;;;;;;10.93;5.90;;;4.50;99.90;;;;;;5136753;27;20446;-57
2023/03/15 00:07:40;;;;;;;12.57;5.80;;;4.50;99.90;;;;;;5136772;27;20511;-56
2023/03/15 00:10:07;;;;;;;9.67;5.00;;;4.50;99.90;;;;;;5136655;27;20974;-57
2023/03/15 00:12:34;;;;;;;14.37;5.00;;;4.50;99.90;;;;;;5136595;27;20462;-57
2023/03/15 00:15:00;;;;;;;9.33;4.73;;;4.60;99.90;;;;;;5136668;27;20479;-56
2023/03/15 00:17:28;;;;;;;9.43;4.97;;;4.60;99.90;;;;;;5136639;27;20450;-56
2023/03/15 00:19:55;;;;;;;18.40;5.70;;;4.70;99.90;;;;;;5136685;27;20449;-57
2023/03/15 00:22:22;;;;;;;10.73;5.30;;;4.70;99.90;;;;;;5136345;27;20508;-57
2023/03/15 00:24:49;;;;;;;11.37;5.90;;;4.80;99.90;;;;;;5136522;27;20473;-57
2023/03/15 00:27:16;;;;;;;13.90;6.80;;;4.80;99.90;;;;;;5136306;27;20454;-57
2023/03/15 00:29:42;;;;;;;14.57;5.50;;;4.70;99.90;;;;;;5136436;27;20445;-56
2023/03/15 00:32:09;;;;;;;12.43;5.80;;;4.80;99.90;;;;;;5136508;27;20462;-56
2023/03/15 00:34:37;;;;;;;12.53;4.80;;;4.80;99.90;;;;;;5136363;27;20446;-57
2023/03/15 00:37:04;;;;;;;7.40;4.40;;;4.80;99.90;;;;;;5136182;27;20450;-57
2023/03/15 00:39:30;;;;;;;19.33;6.20;;;4.80;99.90;;;;;;5136073;27;20479;-57
2023/03/15 00:41:57;;;;;;;15.03;6.40;;;4.80;99.90;;;;;;5136070;27;20481;-57
2023/03/15 00:44:25;;;;;;;11.83;5.70;;;4.80;99.90;;;;;;5136149;27;20845;-57
2023/03/15 00:46:52;;;;;;;11.17;6.13;;;4.80;99.90;;;;;;5136201;27;20536;-57
2023/03/15 00:49:18;;;;;;;10.53;5.40;;;4.90;99.90;;;;;;5136311;27;20450;-57
2023/03/15 00:51:46;;;;;;;11.67;6.60;;;4.90;99.90;;;;;;5136199;27;20446;-57
2023/03/15 00:54:13;;;;;;;19.20;6.40;;;4.90;99.90;;;;;;5136272;27;20450;-57
2023/03/15 00:56:40;;;;;;;11.40;5.40;;;4.90;99.90;;;;;;5137133;27;20469;-56
2023/03/15 00:59:07;;;;;;;7.87;4.30;;;4.90;99.90;;;;;;5136586;27;21009;-56
2023/03/15 01:01:34;;;;;;;10.13;5.30;;;4.80;99.90;;;;;;5137348;27;20564;-56
2023/03/15 01:04:01;;;;;;;12.30;6.53;;;4.70;99.90;;;;;;5139411;27;20462;-57
2023/03/15 01:06:29;;;;;;;11.37;5.87;;;4.70;99.90;;;;;;5137815;27;20444;-57
2023/03/15 01:08:57;;;;;;;16.23;6.10;;;4.70;99.90;;;;;;5136610;27;20450;-57
2023/03/15 01:11:26;;;;;;;8.90;5.87;;;4.70;99.90;;;;;;5135763;27;20935;-57
2023/03/15 01:13:54;;;;;;;11.80;6.00;;;4.70;99.90;;;;;;5135605;27;20461;-57
2023/03/15 01:16:21;;;;;;;11.83;6.70;;;4.60;99.90;;;;;;5135663;27;20438;-57
2023/03/15 01:18:47;;;;;;;11.27;6.57;;;4.60;99.90;;;;;;5135748;27;20446;-57
2023/03/15 01:21:16;;;;;;;12.70;6.53;;;4.60;99.90;;;;;;5135487;27;20485;-57
2023/03/15 01:23:42;;;;;;;13.57;7.60;;;4.60;99.90;;;;;;5135367;27;20833;-57
2023/03/15 01:26:14;;;;;;;11.70;6.47;;;4.60;99.90;;;;;;5135386;27;20442;-57
2023/03/15 01:28:40;;;;;;;14.57;6.97;;;4.60;99.90;;;;;;5135324;27;20785;-57
2023/03/15 01:31:09;;;;;;;11.57;6.90;;;4.60;99.90;;;;;;5135243;27;20449;-57
2023/03/15 01:33:36;;;;;;;10.20;6.10;;;4.60;99.90;;;;;;5134769;27;21024;-57
2023/03/15 01:36:04;;;;;;;8.37;5.13;;;4.50;99.90;;;;;;5134719;27;20962;-57
2023/03/15 01:38:32;;;;;;;6.43;4.80;;;4.50;99.90;;;;;;5134769;27;20469;-56
2023/03/15 01:40:59;;;;;;;9.07;4.83;;;4.40;99.90;;;;;;5134955;27;20520;-56
2023/03/15 01:43:28;;;;;;;9.13;5.23;;;4.40;99.90;;;;;;5134964;27;20855;-56
2023/03/15 01:46:18;;;;;;;9.50;5.07;;;4.30;99.90;;;;;;5135045;27;20806;-56
2023/03/15 01:48:49;;;;;;;9.37;4.60;;;4.20;99.90;;;;;;5134963;27;20483;-56
2023/03/15 01:51:21;;;;;;;6.93;4.03;;;4.10;99.90;;;;;;5135119;27;20438;-56
2023/03/15 01:53:52;;;;;;;11.67;4.60;;;4.10;99.90;;;;;;5134711;27;21014;-56
2023/03/15 01:56:19;;;;;;;5.27;3.80;;;4.00;99.90;;;;;;5134817;27;20435;-56
2023/03/15 01:58:48;;;;;;;7.80;4.67;;;3.90;99.90;;;;;;5134307;27;20449;-56
2023/03/15 02:01:15;;;;;;;6.50;4.17;;;3.80;99.90;;;;;;5134567;27;20441;-56
2023/03/15 02:03:46;;;;;;;6.87;5.17;;;3.70;99.90;;;;;;5134269;27;20886;-56
2023/03/15 02:06:17;;;;;;;8.47;5.30;;;3.70;99.90;;;;;;5134216;27;20899;-57
2023/03/15 02:08:49;;;;;;;6.10;5.50;;;3.70;99.90;;;;;;5134544;27;20418;-57
2023/03/15 02:11:17;;;;;;;10.33;6.40;;;3.60;99.90;;;;;;5134262;27;20426;-56
2023/03/15 02:13:47;;;;;;;9.13;6.23;;;3.60;99.90;;;;;;5133903;27;20474;-56
2023/03/15 02:16:14;;;;;;;12.27;7.43;;;3.60;99.90;;;;;;5134200;27;20915;-57
2023/03/15 02:18:41;;;;;;;8.93;6.33;;;3.60;99.90;;;;;;5134392;27;20442;-57
2023/03/15 02:21:14;;;;;;;7.93;5.93;;;3.60;99.90;;;;;;5134317;27;20454;-56
2023/03/15 02:23:41;;;;;;;9.13;5.93;;;3.70;99.90;;;;;;5134332;27;20454;-56
2023/03/15 02:26:18;;;;;;;4.63;4.23;;;3.80;99.90;;;;;;5134334;28;20450;-56
2023/03/15 02:28:47;;;;;;;6.27;5.07;;;3.70;99.90;;;;;;5134325;28;20434;-56
2023/03/15 02:31:15;;;;;;;7.07;5.40;;;3.70;99.90;;;;;;5134242;28;20502;-57
2023/03/15 02:33:44;;;;;;;4.37;3.57;;;3.70;99.90;;;;;;5133834;27;20978;-57
2023/03/15 02:36:16;;;;;;;4.60;3.53;;;3.80;99.90;;;;;;5134148;28;20450;-57
2023/03/15 02:38:43;;;;;;;5.90;3.63;;;3.80;99.90;;;;;;5134046;28;20458;-57
2023/03/15 02:41:11;;;;;;;3.67;3.37;;;3.70;99.90;;;;;;5134137;28;20499;-57
2023/03/15 02:43:39;;;;;;;4.77;4.30;;;3.70;99.90;;;;;;5134083;27;20485;-57
2023/03/15 02:46:08;;;;;;;4.77;4.37;;;3.70;99.90;;;;;;5134156;28;20514;-57
2023/03/15 02:48:37;;;;;;;4.70;4.30;;;3.80;99.90;;;;;;5133746;28;20960;-57
2023/03/15 02:51:04;;;;;;;5.53;4.57;;;3.80;99.90;;;;;;5134131;28;20442;-57
2023/03/15 02:53:32;;;;;;;6.80;6.10;;;3.80;99.90;;;;;;5133825;27;20475;-56
2023/03/15 02:55:59;;;;;;;6.30;5.77;;;3.80;99.90;;;;;;5134569;28;20532;-57
2023/03/15 02:58:26;;;;;;;7.40;5.70;;;3.80;99.90;;;;;;5133723;28;20886;-57
2023/03/15 03:00:53;;;;;;;6.87;6.20;;;3.80;99.90;;;;;;5134013;28;20508;-57
2023/03/15 03:03:21;;;;;;;9.57;6.00;;;3.90;99.90;;;;;;5133792;27;20477;-57
2023/03/15 03:05:48;;;;;;;6.93;6.00;;;3.80;99.90;;;;;;5134119;28;20449;-57
2023/03/15 03:08:15;;;;;;;6.67;4.90;;;3.80;99.90;;;;;;5133903;28;20455;-57
2023/03/15 03:10:42;;;;;;;6.30;5.30;;;3.70;99.90;;;;;;5133931;28;20464;-57
2023/03/15 03:13:08;;;;;;;6.37;5.73;;;3.60;99.90;;;;;;5133490;27;20997;-57
2023/03/15 03:15:35;;;;;;;6.23;5.63;;;3.60;99.90;;;;;;5133821;28;20445;-57
2023/03/15 03:18:02;;;;;;;7.13;6.43;;;3.50;99.90;;;;;;5133825;28;20446;-57
2023/03/15 03:20:30;;;;;;;10.33;7.30;;;3.50;99.90;;;;;;5133796;28;20444;-57
2023/03/15 03:22:56;;;;;;;9.77;6.50;;;3.50;99.90;;;;;;5133853;27;20505;-57
2023/03/15 03:25:25;;;;;;;9.10;6.80;;;3.50;99.90;;;;;;5137588;27;20446;-57
2023/03/15 03:27:56;;;;;;;9.20;6.67;;;3.50;99.90;;;;;;5137635;27;20839;-57
2023/03/15 03:30:23;;;;;;;9.43;6.27;;;3.50;99.90;;;;;;5137487;27;20430;-57
2023/03/15 03:32:50;;;;;;;10.97;6.33;;;3.40;99.90;;;;;;5137402;27;20541;-57
2023/03/15 03:35:17;;;;;;;7.50;6.80;;;3.40;99.90;;;;;;5137331;27;20473;-57
2023/03/15 03:37:45;;;;;;;6.83;6.20;;;3.40;99.90;;;;;;5137149;27;20454;-57
2023/03/15 03:40:13;;;;;;;7.60;6.80;;;3.40;99.90;;;;;;5137319;27;20579;-57
2023/03/15 03:42:40;;;;;;;8.17;7.37;;;3.50;99.90;;;;;;5137136;27;20520;-57
2023/03/15 03:45:08;;;;;;;7.70;6.90;;;3.50;99.90;;;;;;5137208;27;20491;-57
2023/03/15 03:47:35;;;;;;;9.83;6.90;;;3.60;99.90;;;;;;5137185;27;20449;-57
2023/03/15 03:50:01;;;;;;;8.07;7.20;;;3.60;99.90;;;;;;5136850;27;20912;-56
2023/03/15 03:52:28;;;;;;;6.80;6.00;;;3.60;99.90;;;;;;5137130;27;20556;-56
2023/03/15 03:54:56;;;;;;;8.50;7.27;;;3.60;99.90;;;;;;5137045;27;20498;-56
2023/03/15 03:57:23;;;;;;;7.60;6.80;;;3.70;99.90;;;;;;5138131;27;20457;-56
2023/03/15 03:59:50;;;;;;;6.87;6.23;;;3.70;99.90;;;;;;5137894;27;20438;-56
2023/03/15 04:02:16;;;;;;;6.43;5.87;;;3.70;99.90;;;;;;5137924;27;20485;-56
2023/03/15 04:04:43;;;;;;;11.30;7.50;;;3.60;99.90;;;;;;5137506;27;20442;-57
2023/03/15 04:07:10;;;;;;;5.67;5.10;;;3.60;99.90;;;;;;5137213;27;20815;-57
2023/03/15 04:09:36;;;;;;;8.00;7.20;;;3.50;99.90;;;;;;5136975;27;20818;-58
2023/03/15 04:12:05;;;;;;;7.03;6.37;;;3.40;99.90;;;;;;5136828;27;20485;-58
2023/03/15 04:14:32;;;;;;;7.50;6.80;;;3.40;99.90;;;;;;5136785;27;20513;-58
2023/03/15 04:16:58;;;;;;;6.77;5.80;;;3.40;99.90;;;;;;5136774;27;20458;-58
2023/03/15 04:19:26;;;;;;;7.97;7.17;;;3.30;99.90;;;;;;5136765;27;20468;-59
2023/03/15 04:21:52;;;;;;;6.80;6.20;;;3.30;99.90;;;;;;5136364;27;20449;-60
2023/03/15 04:24:19;;;;;;;7.70;6.43;;;3.30;99.90;;;;;;5136473;27;20495;-60
2023/03/15 04:26:46;;;;;;;9.33;7.40;;;3.30;99.90;;;;;;5136269;27;20446;-59
2023/03/15 04:29:14;;;;;;;7.73;6.27;;;3.40;99.90;;;;;;5136542;27;20445;-60
2023/03/15 04:31:42;;;;;;;7.30;6.60;;;3.40;99.90;;;;;;5136483;27;20442;-60
2023/03/15 04:34:09;;;;;;;7.70;6.40;;;3.50;99.90;;;;;;5135997;27;20466;-60
2023/03/15 04:36:36;;;;;;;6.27;5.70;;;3.50;99.90;;;;;;5135141;27;20978;-60
2023/03/15 04:39:04;;;;;;;6.17;5.67;;;3.50;99.90;;;;;;5136021;27;20461;-60
2023/03/15 04:41:33;;;;;;;7.83;6.50;;;3.40;99.90;;;;;;5136506;27;20457;-60
2023/03/15 04:44:00;;;;;;;6.87;6.17;;;3.40;99.90;;;;;;5135922;27;20478;-60
2023/03/15 04:46:28;;;;;;;6.63;5.87;;;3.40;99.90;;;;;;5136917;27;20445;-60
2023/03/15 04:48:55;;;;;;;6.33;5.80;;;3.40;99.90;;;;;;5135644;27;20438;-59
2023/03/15 04:51:21;;;;;;;6.17;5.57;;;3.40;99.90;;;;;;5136023;27;20450;-59
2023/03/15 04:53:48;;;;;;;5.67;5.10;;;3.40;99.90;;;;;;5135741;27;20462;-59
2023/03/15 04:56:15;;;;;;;5.87;5.37;;;3.30;99.90;;;;;;5135818;27;20442;-59
2023/03/15 04:58:41;;;;;;;7.17;6.53;;;3.20;99.90;;;;;;5136627;27;20446;-59
2023/03/15 05:01:08;;;;;;;6.63;5.40;;;3.20;99.90;;;;;;5135488;27;20453;-59
2023/03/15 05:03:36;;;;;;;7.47;6.77;;;3.20;99.90;;;;;;5135664;27;20488;-59
2023/03/15 05:06:06;;;;;;;6.50;5.90;;;3.10;99.90;;;;;;5135532;27;20862;-58
2023/03/15 05:08:33;;;;;;;6.17;5.57;;;3.10;99.90;;;;;;5135727;27;20431;-59
2023/03/15 05:11:00;;;;;;;6.93;6.33;;;3.10;99.90;;;;;;5135207;27;20946;-59
2023/03/15 05:13:27;;;;;;;7.13;6.53;;;3.10;99.90;;;;;;5135169;27;21029;-58
2023/03/15 05:15:53;;;;;;;7.97;6.43;;;3.10;99.90;;;;;;5135586;27;20449;-58
2023/03/15 05:18:20;;;;;;;8.50;7.60;;;3.10;99.90;;;;;;5135453;27;20450;-58
2023/03/15 05:20:48;;;;;;;8.77;7.30;;;3.10;99.90;;;;;;5135081;27;20963;-58
2023/03/15 05:23:15;;;;;;;9.63;7.77;;;3.10;99.90;;;;;;5135135;27;20477;-59
2023/03/15 05:25:42;;;;;;;8.00;7.27;;;3.20;99.90;;;;;;5135292;27;20441;-59
2023/03/15 05:28:09;;;;;;;9.57;7.40;;;3.30;99.90;;;;;;5135240;27;20446;-58
2023/03/15 05:30:35;;;;;;;8.83;7.80;;;3.30;99.90;;;;;;5135113;27;20453;-59
2023/03/15 05:33:03;;;;;;;7.90;7.13;;;3.20;99.90;;;;;;5134784;27;21044;-58
2023/03/15 05:35:30;;;;;;;8.70;8.00;;;3.20;99.90;;;;;;5135140;27;20857;-58
2023/03/15 05:37:58;;;;;;;9.73;8.73;;;3.20;99.90;;;;;;5134940;27;20457;-58
2023/03/15 05:40:25;;;;;;;9.30;8.40;;;3.20;99.90;;;;;;5135142;27;20449;-58
2023/03/15 05:42:52;;;;;;;9.20;8.10;;;3.30;99.90;;;;;;5134951;27;20478;-58
2023/03/15 05:45:19;;;;;;;11.17;8.90;;;3.40;99.90;;;;;;5134960;27;20449;-58
2023/03/15 05:47:45;;;;;;;9.70;8.80;;;3.40;99.90;;;;;;5134682;27;20453;-58
2023/03/15 05:50:12;;;;;;;8.37;7.57;;;3.50;99.90;;;;;;5134731;27;20457;-58
2023/03/15 05:52:39;;;;;;;8.83;8.03;;;3.60;99.90;;;;;;5134738;27;20574;-58
2023/03/15 05:55:07;;;;;;;12.83;9.37;;;3.60;99.90;;;;;;5134831;27;20453;-58
2023/03/15 05:57:34;;;;;;;9.93;8.93;;;3.70;99.90;;;;;;5134735;27;20813;-58
2023/03/15 06:00:01;;;;;;;9.27;8.37;;;3.70;99.90;;;;;;5134735;27;20438;-58
2023/03/15 06:02:27;;;;;;;9.43;8.53;;;3.80;99.90;;;;;;5134862;27;20465;-58
2023/03/15 06:04:54;;;;;;;10.50;9.40;;;4.00;99.90;;;;;;5134458;27;20454;-58
2023/03/15 06:07:20;;;;;;;10.43;9.37;;;4.10;99.90;;;;;;5135359;27;20446;-58
2023/03/15 06:09:47;;;;;;;10.17;9.17;;;4.10;99.90;;;;;;5134206;27;20540;-58
2023/03/15 06:12:15;;;;;;;9.60;8.67;;;4.20;99.90;;;;;;5134104;27;20865;-58
2023/03/15 06:14:42;;;;;;;10.60;9.70;;;4.20;99.90;;;;;;5134414;27;20453;-58
2023/03/15 06:17:09;;;;;;;9.70;8.77;;;4.20;99.90;;;;;;5134342;27;20438;-58
2023/03/15 06:19:36;;;;;;;11.43;10.33;;;4.20;99.90;;;;;;5135048;27;20457;-58
2023/03/15 06:22:02;;;;;;;12.90;10.20;;;4.30;99.90;;;;;;5134430;27;20441;-58
2023/03/15 06:24:30;;;;;;;12.20;10.90;;;4.20;99.90;;;;;;5134206;27;20504;-58
2023/03/15 06:26:56;;;;;;;11.90;10.53;;;4.30;99.90;;;;;;5134359;28;20515;-58
2023/03/15 06:29:24;;;;;;;12.30;10.80;;;4.30;99.90;;;;;;5134313;28;20442;-57
2023/03/15 06:31:51;;;;;;;17.53;11.20;;;4.20;99.90;;;;;;5133969;27;20442;-57
2023/03/15 06:34:19;;;;;;;13.23;11.83;;;4.10;99.90;;;;;;5134068;28;20452;-57
2023/03/15 06:36:46;;;;;;;14.37;12.43;;;4.20;99.90;;;;;;5134537;28;20449;-57
2023/03/15 06:39:13;;;;;;;14.37;12.53;;;4.20;99.90;;;;;;5134163;28;20461;-57
2023/03/15 06:41:40;;;;;;;14.20;12.67;;;4.20;99.90;;;;;;5134367;28;20454;-57
2023/03/15 06:44:07;;;;;;;16.27;14.57;;;4.30;99.90;;;;;;5134038;27;20580;-57
2023/03/15 06:46:36;;;;;;;17.20;15.33;;;4.40;99.90;;;;;;5134220;28;20536;-57
2023/03/15 06:49:03;;;;;;;15.47;13.10;;;4.40;99.90;;;;;;5134430;28;20453;-57
2023/03/15 06:51:30;;;;;;;15.57;13.20;;;4.50;99.90;;;;;;5134535;28;20481;-57
2023/03/15 06:53:56;;;;;;;17.53;14.23;;;4.40;99.90;;;;;;5136456;27;20470;-57
2023/03/15 06:56:23;;;;;;;19.10;13.57;;;4.40;99.90;;;;;;5135570;28;20491;-58
2023/03/15 06:58:50;;;;;;;18.70;14.87;;;4.30;99.90;;;;;;5136717;27;20444;-57
2023/03/15 07:01:16;;;;;;;16.90;14.87;;;4.30;99.90;;;;;;5138667;27;20446;-58
2023/03/15 07:03:44;;;;;;;15.03;13.53;;;4.30;99.90;;;;;;5138169;27;20481;-58
2023/03/15 07:06:11;;;;;;;16.40;14.13;;;4.40;99.90;;;;;;5138036;27;20452;-58
2023/03/15 07:08:38;;;;;;;19.43;15.33;;;4.40;99.90;;;;;;5138247;27;20476;-58
2023/03/15 07:11:05;;;;;;;17.47;14.30;;;4.40;99.90;;;;;;5138058;27;20450;-58
2023/03/15 07:13:31;;;;;;;16.87;14.13;;;4.50;99.90;;;;;;5137980;27;20465;-58
2023/03/15 07:15:58;;;;;;;19.30;14.23;;;4.50;99.90;;;;;;5137913;27;20445;-58
2023/03/15 07:18:25;;;;;;;17.03;12.50;;;4.50;99.90;;;;;;5137807;27;20449;-58
2023/03/15 07:21:00;;;;;;;19.67;15.33;;;4.50;99.90;;;;;;5137843;27;20446;-58
2023/03/15 07:23:27;;;;;;;17.63;13.83;;;4.60;99.90;;;;;;5137488;27;20825;-58
2023/03/15 07:25:54;;;;;;;20.03;13.97;;;4.70;99.90;;;;;;5137737;27;20441;-58
2023/03/15 07:28:21;;;;;;;18.07;13.10;;;4.70;99.90;;;;;;5137578;27;20450;-58
2023/03/15 07:30:55;;;;;;;17.17;13.83;;;4.70;99.90;;;;;;5137716;27;20446;-58
2023/03/15 07:33:23;;;;;;;16.10;13.10;;;4.70;99.90;;;;;;5137452;27;20487;-58
2023/03/15 07:35:50;;;;;;;20.33;14.47;;;4.80;99.90;;;;;;5138041;27;20446;-58
2023/03/15 07:38:18;;;;;;;17.83;13.00;;;4.80;99.90;;;;;;5137507;27;20469;-58
2023/03/15 07:40:45;;;;;;;12.93;10.30;;;4.90;99.90;;;;;;5137877;27;20844;-58
2023/03/15 07:43:12;;;;;;;17.20;13.77;;;4.90;99.90;;;;;;5137246;27;20470;-58
2023/03/15 07:45:39;;;;;;;15.33;13.33;;;5.00;99.90;;;;;;5137399;27;20449;-58
2023/03/15 07:48:06;;;;;;;28.80;21.23;;;5.20;99.90;;;;;;5137239;27;20465;-58
2023/03/15 07:50:33;;;;;;;33.80;26.40;;;5.30;99.90;;;;;;5137180;27;20450;-59
2023/03/15 07:53:00;;;;;;;27.80;20.13;;;5.50;99.90;;;;;;5137113;27;20803;-59
2023/03/15 07:55:27;;;;;;;13.00;11.60;;;5.60;99.90;;;;;;5137112;27;20450;-58
2023/03/15 07:57:54;;;;;;;15.67;12.50;;;5.70;99.90;;;;;;5136994;27;20446;-58
2023/03/15 08:00:21;;;;;;;16.80;13.03;;;5.80;99.90;;;;;;5136675;27;20939;-58
2023/03/15 08:02:48;;;;;;;13.63;10.80;;;5.90;99.90;;;;;;5136875;27;20472;-58
2023/03/15 08:05:17;;;;;;;14.30;12.33;;;6.00;99.90;;;;;;5136810;27;20482;-58
2023/03/15 08:07:44;;;;;;;16.80;12.47;;;6.00;99.90;;;;;;5136774;27;20533;-58
2023/03/15 08:10:11;;;;;;;13.43;11.93;;;6.00;99.90;;;;;;5136674;27;20453;-58
2023/03/15 08:12:41;;;;;;;12.43;11.00;;;6.10;99.90;;;;;;5137207;27;20462;-58
2023/03/15 08:15:09;;;;;;;16.17;13.53;;;6.30;99.90;;;;;;5136617;27;20431;-58
2023/03/15 08:17:36;;;;;;;13.87;11.30;;;6.40;99.90;;;;;;5137267;27;20457;-59
2023/03/15 08:20:03;;;;;;;12.50;11.30;;;6.40;99.90;;;;;;5137452;27;20450;-58
2023/03/15 08:22:30;;;;;;;15.60;12.20;;;6.50;99.90;;;;;;5136194;27;20462;-58
2023/03/15 08:24:57;;;;;;;14.03;12.53;;;6.40;99.90;;;;;;5136399;27;20478;-59
2023/03/15 08:27:25;;;;;;;16.43;12.90;;;6.50;99.90;;;;;;5136418;27;20489;-58
2023/03/15 08:29:53;;;;;;;17.97;13.50;;;6.70;99.90;;;;;;5136364;27;20469;-58
2023/03/15 08:32:20;;;;;;;14.47;12.57;;;6.90;99.90;;;;;;5135939;27;20462;-59
2023/03/15 08:34:47;;;;;;;13.27;11.87;;;7.00;99.90;;;;;;5136353;27;20438;-59
2023/03/15 08:37:14;;;;;;;12.10;10.80;;;7.20;99.90;;;;;;5136268;27;20446;-59
2023/03/15 08:39:40;;;;;;;11.87;10.10;;;7.20;99.90;;;;;;5135791;27;20481;-59
2023/03/15 08:42:07;;;;;;;10.63;9.53;;;7.20;99.90;;;;;;5136125;27;20461;-58
2023/03/15 08:44:34;;;;;;;12.50;10.10;;;7.30;99.90;;;;;;5135773;27;20895;-59
2023/03/15 08:47:03;;;;;;;11.23;9.50;;;7.30;99.90;;;;;;5136535;27;20446;-59
2023/03/15 08:49:30;;;;;;;12.00;10.47;;;7.30;99.90;;;;;;5135936;27;20479;-58
2023/03/15 08:51:57;;;;;;;14.27;10.50;;;7.40;99.90;;;;;;5135964;27;20449;-59
2023/03/15 08:54:24;;;;;;;17.33;12.00;;;7.40;99.90;;;;;;5135897;27;20453;-59
2023/03/15 08:56:51;;;;;;;9.43;8.27;;;7.50;99.90;;;;;;5135867;27;20437;-58
2023/03/15 08:59:17;;;;;;;14.57;8.30;;;7.50;99.80;;;;;;5135883;27;20453;-59
2023/03/15 09:01:44;;;;;;;11.50;7.20;;;7.50;99.20;;;;;;5135855;27;20446;-59
2023/03/15 09:04:12;;;;;;;9.00;7.17;;;7.40;99.20;;;;;;5135259;27;20517;-59
2023/03/15 09:06:41;;;;;;;10.70;5.93;;;7.40;99.20;;;;;;5135328;27;20943;-58
2023/03/15 09:09:08;;;;;;;12.40;6.30;;;7.30;98.90;;;;;;5135820;27;20503;-58
2023/03/15 09:11:34;;;;;;;11.10;6.23;;;7.30;98.80;;;;;;5135576;27;20442;-58
2023/03/15 09:14:01;;;;;;;10.80;7.60;;;7.30;98.60;;;;;;5135433;27;20458;-58
2023/03/15 09:16:28;;;;;;;8.60;6.90;;;7.40;99.30;;;;;;5135512;27;20489;-58
2023/03/15 09:18:55;;;;;;;7.50;6.40;;;7.60;99.40;;;;;;5135104;27;20939;-58
2023/03/15 09:21:23;;;;;;;6.63;6.00;;;7.80;99.60;;;;;;5134551;27;20797;-58
2023/03/15 09:23:50;;;;;;;9.07;5.77;;;7.90;99.70;;;;;;5135178;27;20572;-58
2023/03/15 09:26:17;;;;;;;8.43;5.83;;;8.10;99.70;;;;;;5135288;27;20437;-58
2023/03/15 09:28:44;;;;;;;10.30;7.20;;;8.30;99.30;;;;;;5135213;27;20437;-58
2023/03/15 09:31:10;;;;;;;11.13;6.70;;;8.50;98.40;;;;;;5135197;27;20473;-59
2023/03/15 09:33:37;;;;;;;7.43;6.00;;;8.80;97.90;;;;;;5134799;27;21039;-58
2023/03/15 09:36:04;;;;;;;10.40;7.10;;;9.00;97.00;;;;;;5135136;27;20442;-59
2023/03/15 09:38:32;;;;;;;6.93;6.13;;;9.10;94.80;;;;;;5135001;27;20468;-59
2023/03/15 09:41:00;;;;;;;6.90;6.30;;;9.20;94.80;;;;;;5135091;27;20452;-58
2023/03/15 09:43:49;;;;;;;12.23;6.80;;;8.90;92.60;;;;;;5135128;27;20536;-59
2023/03/15 09:46:26;;;;;;;8.37;7.57;;;8.70;93.30;;;;;;5135238;27;20475;-59
2023/03/15 09:48:56;;;;;;;8.30;5.60;;;8.50;93.60;;;;;;5135809;27;20447;-59
2023/03/15 09:51:34;;;;;;;9.00;5.00;;;8.40;93.80;;;;;;5136052;27;20438;-58
2023/03/15 09:54:04;;;;;;;7.67;5.23;;;8.40;93.70;;;;;;5135282;27;20457;-58
2023/03/15 09:56:36;;;;;;;9.77;5.43;;;8.50;94.20;;;;;;5135178;27;20978;-59
2023/03/15 09:59:03;;;;;;;11.30;4.90;;;8.70;93.50;;;;;;5135028;27;20426;-58
2023/03/15 10:01:32;;;;;;;7.63;4.43;;;8.90;92.90;;;;;;5135021;27;20441;-58
2023/03/15 10:04:04;;;;;;;5.33;4.83;;;9.10;92.00;;;;;;5134988;27;20486;-59
2023/03/15 10:06:33;;;;;;;6.53;5.17;;;9.40;92.20;;;;;;5134864;27;20453;-59
2023/03/15 10:09:04;;;;;;;6.43;4.70;;;9.80;92.20;;;;;;5134819;27;20503;-59
2023/03/15 10:11:36;;;;;;;7.60;4.50;;;10.30;91.20;;;;;;5134662;27;20435;-59
2023/03/15 10:14:18;;;;;;;11.97;4.50;;;10.60;87.60;;;;;;5134794;27;20482;-59
2023/03/15 10:16:47;;;;;;;11.00;4.63;;;10.70;81.50;;;;;;5134624;27;20433;-58
2023/03/15 10:19:25;;;;;;;6.90;4.30;;;10.80;81.80;;;;;;5134537;27;20441;-57
2023/03/15 10:22:01;;;;;;;4.53;3.57;;;10.70;80.20;;;;;;5134545;27;20493;-58
2023/03/15 10:24:37;;;;;;;31.97;5.70;;;10.60;78.70;;;;;;5134216;27;20834;-58
2023/03/15 10:27:15;;;;;;;5.33;3.47;;;10.70;78.00;;;;;;5134722;28;20436;-57
2023/03/15 10:29:43;;;;;;;5.17;3.03;;;10.90;78.60;;;;;;5135343;28;20453;-58
2023/03/15 10:32:16;;;;;;;5.90;3.50;;;11.50;79.40;;;;;;5138851;27;20465;-58
2023/03/15 10:34:47;;;;;;;7.57;3.90;;;12.00;72.50;;;;;;5137993;27;20422;-58
2023/03/15 10:37:14;;;;;;;7.87;3.37;;;12.40;68.40;;;;;;5138610;27;20919;-58
2023/03/15 10:39:45;;;;;;;5.00;2.70;;;13.00;67.80;;;;;;5138251;27;20630;-58
2023/03/15 10:42:27;;;;;;;4.70;3.07;;;13.70;66.50;;;;;;5138266;27;20822;-58
2023/03/15 10:44:54;;;;;;;6.30;2.80;;;14.60;64.30;;;;;;5138591;27;20470;-58
2023/03/15 10:47:25;;;;;;;9.77;3.67;;;15.40;57.80;;;;;;5138397;27;20450;-58
2023/03/15 10:49:57;;;;;;;5.10;3.13;;;16.20;57.30;;;;;;5138531;27;20538;-58
2023/03/15 10:52:34;;;;;;;6.57;3.83;;;17.00;54.10;;;;;;5138046;27;20462;-58
2023/03/15 10:55:04;;;;;;;5.67;3.30;;;17.50;52.20;;;;;;5138317;27;20423;-58
2023/03/15 10:57:35;;;;;;;6.70;3.10;;;18.10;49.30;;;;;;5138640;27;20474;-58
2023/03/15 11:00:08;;;;;;;5.23;2.90;;;18.50;44.00;;;;;;5137747;27;20810;-58
2023/03/15 11:02:35;;;;;;;2.97;2.67;;;18.80;42.40;;;;;;5137819;27;20986;-58
2023/03/15 11:05:14;;;;;;;5.00;2.60;;;19.20;41.50;;;;;;5137885;27;21078;-58
2023/03/15 11:07:54;;;;;;;6.27;2.70;;;19.60;41.60;;;;;;5138161;27;20438;-58
2023/03/15 11:10:24;;;;;;;6.30;3.10;;;19.80;39.90;;;;;;5138104;27;20434;-58
2023/03/15 11:13:10;;;;;;;3.50;2.80;;;19.40;38.80;;;;;;5137797;27;20466;-58
2023/03/15 11:15:36;;;;;;;4.20;2.73;;;18.20;39.70;;;;;;5137916;27;20525;-58
2023/03/15 11:18:03;;;;;;;6.87;2.80;;;17.30;41.20;;;;;;5137500;27;20442;-58
2023/03/15 11:20:35;;;;;;;4.93;3.00;;;16.40;43.30;;;;;;5137443;27;20962;-58
2023/03/15 11:23:13;;;;;;;6.20;3.47;;;15.70;45.20;;;;;;5137579;27;20549;-58
2023/03/15 11:25:41;;;;;;;5.23;3.07;;;15.10;46.50;;;;;;5138120;27;20465;-58
2023/03/15 11:28:16;;;;;;;5.80;3.10;;;14.70;47.90;;;;;;5137633;27;20450;-58
2023/03/15 11:30:44;;;;;;;4.97;3.47;;;14.50;50.00;;;;;;5137964;27;20451;-58
2023/03/15 11:33:25;;;;;;;3.90;3.40;;;14.40;51.80;;;;;;5137811;27;20461;-57
2023/03/15 11:35:53;;;;;;;6.03;3.63;;;14.40;50.90;;;;;;5137489;27;20426;-57
2023/03/15 11:38:28;;;;;;;7.73;3.27;;;14.50;50.50;;;;;;5137315;27;20456;-58
2023/03/15 11:40:58;;;;;;;7.00;4.13;;;14.50;50.80;;;;;;5137521;27;20429;-58
2023/03/15 11:43:29;;;;;;;6.43;3.83;;;14.40;50.80;;;;;;5137419;27;20458;-58
2023/03/15 11:46:00;;;;;;;5.10;3.10;;;14.20;50.90;;;;;;5136753;27;20458;-58
2023/03/15 11:48:31;;;;;;;4.07;2.43;;;14.10;51.80;;;;;;5137600;27;20517;-58
2023/03/15 11:50:59;;;;;;;6.60;2.67;;;14.00;52.20;;;;;;5137187;27;20426;-58
2023/03/15 11:53:30;;;;;;;5.67;1.90;;;13.80;50.80;;;;;;5136805;27;21021;-58
2023/03/15 11:56:19;;;;;;;4.27;2.20;;;14.20;46.90;;;;;;5137657;27;20465;-58
2023/03/15 11:59:02;;;;;;;4.83;2.20;;;14.60;45.70;;;;;;5137089;27;20426;-58
2023/03/15 12:01:29;;;;;;;5.97;1.87;;;14.60;46.50;;;;;;5137331;27;20497;-58
2023/03/15 12:04:29;;;;;;;5.10;2.00;;;14.40;47.00;;;;;;5136935;27;20465;-58
2023/03/15 12:06:57;;;;;;;4.00;2.03;;;13.90;45.70;;;;;;5129574;27;20441;-58
2023/03/15 12:09:48;;;;;;;6.60;1.83;;;13.60;47.00;;;;;;5136944;27;20814;-58
2023/03/15 12:12:37;;;;;;;5.70;2.00;;;13.40;47.80;;;;;;5136704;27;20511;-58
2023/03/15 12:15:14;;;;;;;3.10;2.10;;;14.60;47.80;;;;;;5136790;27;20469;-59
2023/03/15 12:17:45;;;;;;;4.90;1.77;;;16.10;47.20;;;;;;5136738;27;20429;-58
2023/03/15 12:20:19;;;;;;;5.53;2.00;;;17.00;42.50;;;;;;5136705;27;20430;-58
2023/03/15 12:22:51;;;;;;;3.40;2.80;;;17.20;40.90;;;;;;5136282;27;20473;-59
2023/03/15 12:25:22;;;;;;;5.60;2.27;;;17.40;41.60;;;;;;5136393;27;20549;-59
2023/03/15 12:27:53;;;;;;;8.43;2.87;;;17.50;42.00;;;;;;5136580;27;20433;-59
2023/03/15 12:30:24;;;;;;;8.13;2.27;;;17.50;42.60;;;;;;5136631;27;20823;-59
2023/03/15 12:32:54;;;;;;;8.00;3.70;;;17.40;41.60;;;;;;5136071;27;20470;-59
2023/03/15 12:35:23;;;;;;;6.30;3.30;;;17.00;41.80;;;;;;5136177;27;20449;-59
2023/03/15 12:37:52;;;;;;;8.40;2.57;;;16.50;41.70;;;;;;5136407;27;20473;-59
2023/03/15 12:40:47;;;;;;;4.83;2.60;;;16.00;41.50;;;;;;5136858;27;20477;-58
2023/03/15 12:43:15;;;;;;;5.63;2.30;;;15.40;43.50;;;;;;5137371;27;20462;-58
2023/03/15 12:45:46;;;;;;;7.70;2.90;;;15.00;44.90;;;;;;5137722;27;20485;-58
2023/03/15 12:48:24;;;;;;;6.40;2.77;;;14.60;45.40;;;;;;5136612;27;20449;-58
2023/03/15 12:50:55;;;;;;;6.40;2.40;;;14.40;46.60;;;;;;5136375;27;20441;-58
2023/03/15 12:53:27;;;;;;;6.30;2.47;;;14.10;47.80;;;;;;5136112;27;20462;-58
2023/03/15 12:55:54;;;;;;;5.90;2.20;;;13.90;47.30;;;;;;5135171;27;20431;-58